createdAt,value
2023-05-21T00:05:08.635Z,25
2023-05-21T00:33:52.755Z,25
2023-05-21T01:02:59.126Z,25
2023-05-21T01:32:27.750Z,26
2023-05-21T02:01:20.485Z,28
2023-05-21T02:30:12.594Z,29
2023-05-21T02:59:08.715Z,28
2023-05-21T03:28:12.410Z,42
2023-05-21T03:57:05.170Z,31
2023-05-21T04:26:01.203Z,29
2023-05-21T04:55:01.772Z,31
2023-05-21T05:24:00.484Z,29
2023-05-21T05:52:58.530Z,30
2023-05-21T06:22:00.103Z,31
2023-05-21T06:51:01.972Z,29
2023-05-21T07:20:05.663Z,28
2023-05-21T07:48:59.571Z,29
2023-05-21T08:17:42.619Z,28
2023-05-21T08:46:45.342Z,28
2023-05-21T09:15:22.565Z,27
2023-05-21T09:44:24.101Z,25
2023-05-21T10:13:23.979Z,26
2023-05-21T10:42:02.417Z,23
2023-05-21T11:10:29.377Z,26
2023-05-21T11:39:18.911Z,25
2023-05-21T12:08:01.500Z,25
2023-05-21T12:36:44.869Z,22
2023-05-21T13:05:35.748Z,22
2023-05-21T13:34:06.136Z,22
2023-05-21T14:02:45.984Z,22
2023-05-21T14:31:21.118Z,20
2023-05-21T15:00:21.829Z,19
2023-05-21T15:28:39.438Z,19
2023-05-21T15:57:17.521Z,19
2023-05-21T16:25:40.047Z,19
2023-05-21T16:54:24.412Z,19
2023-05-21T17:22:49.418Z,15
2023-05-21T17:51:24.973Z,15
2023-05-21T18:20:07.198Z,15
2023-05-21T18:48:27.115Z,14
2023-05-21T19:17:01.436Z,16
2023-05-21T19:45:52.327Z,19
2023-05-21T20:14:48.332Z,17
2023-05-21T21:41:08.532Z,19
2023-05-21T22:09:58.452Z,20
2023-05-21T22:38:25.151Z,19
2023-05-21T23:07:08.363Z,19
2023-05-21T23:35:35.096Z,19
